createdAt,value
2023-04-18T00:01:59.203Z,100796.77
2023-04-18T00:04:29.195Z,100789.25
2023-04-18T00:06:58.214Z,100796.47
2023-04-18T00:09:26.766Z,100785.03
2023-04-18T00:11:55.432Z,100786.26
2023-04-18T00:14:24.582Z,100796.54
2023-04-18T00:16:53.888Z,100787.66
2023-04-18T00:19:22.667Z,100794.84
2023-04-18T00:21:53.103Z,100791.28
2023-04-18T00:24:21.890Z,100795.24
2023-04-18T00:26:50.397Z,100793.54
2023-04-18T00:29:18.987Z,100794.23
2023-04-18T00:31:47.475Z,100793.23
2023-04-18T00:34:16.255Z,100793.61
2023-04-18T00:36:47.048Z,100795.34
2023-04-18T00:39:17.527Z,100791.75
2023-04-18T00:41:46.246Z,100794.86
2023-04-18T00:44:14.770Z,100792.45
2023-04-18T00:46:44.175Z,100790.23
2023-04-18T00:49:12.633Z,100784.73
2023-04-18T00:51:41.511Z,100794.13
2023-04-18T00:54:12.415Z,100784.21
2023-04-18T00:56:41.336Z,100783.20
2023-04-18T00:59:11.197Z,100783.91
2023-04-18T01:01:42.998Z,100781.69
2023-04-18T01:04:12.114Z,100778.59
2023-04-18T01:06:43.842Z,100778.77
2023-04-18T01:09:13.609Z,100772.63
2023-04-18T01:11:42.998Z,100778.98
2023-04-18T01:14:12.924Z,100782.42
2023-04-18T01:16:42.342Z,100776.28
2023-04-18T01:19:14.084Z,100782.97
2023-04-18T01:21:43.484Z,100778.71
2023-04-18T01:24:15.734Z,100779.92
2023-04-18T01:26:47.316Z,100777.38
2023-04-18T01:29:15.714Z,100776.70
2023-04-18T01:31:44.489Z,100781.50
2023-04-18T01:34:17.952Z,100781.69
2023-04-18T01:36:46.392Z,100778.47
2023-04-18T01:39:15.041Z,100777.61
2023-04-18T01:41:43.693Z,100779.16
2023-04-18T01:44:12.325Z,100782.08
2023-04-18T01:46:41.234Z,100780.04
2023-04-18T01:49:10.074Z,100778.00
2023-04-18T01:51:39.381Z,100777.33
2023-04-18T01:54:07.880Z,100779.39
2023-04-18T01:56:37.168Z,100783.19
2023-04-18T01:59:05.721Z,100778.92
2023-04-18T02:01:34.176Z,100780.99
2023-04-18T02:04:02.768Z,100775.88
2023-04-18T02:06:32.556Z,100777.43
2023-04-18T02:09:01.590Z,100769.07
2023-04-18T02:11:31.483Z,100767.55
2023-04-18T02:14:00.867Z,100770.13
2023-04-18T02:16:29.665Z,100769.27
2023-04-18T02:18:58.163Z,100771.66
2023-04-18T02:21:27.269Z,100763.30
2023-04-18T02:23:56.044Z,100769.11
2023-04-18T02:26:24.930Z,100769.63
2023-04-18T02:28:53.570Z,100772.53
2023-04-18T02:31:23.410Z,100772.37
2023-04-18T02:33:53.289Z,100771.02
2023-04-18T02:36:23.255Z,100772.55
2023-04-18T02:38:51.907Z,100773.25
2023-04-18T02:41:23.339Z,100766.59
2023-04-18T02:43:51.871Z,100771.05
2023-04-18T02:46:21.010Z,100767.64
2023-04-18T02:48:50.031Z,100770.55
2023-04-18T02:51:19.703Z,100775.17
2023-04-18T02:53:48.351Z,100768.69
2023-04-18T02:56:18.444Z,100772.30
2023-04-18T02:59:06.321Z,100771.95
2023-04-18T03:01:39.756Z,100768.89
2023-04-18T03:04:12.511Z,100771.28
2023-04-18T03:06:43.149Z,100772.13
2023-04-18T03:09:16.905Z,100771.28
2023-04-18T03:11:49.233Z,100769.58
2023-04-18T03:14:19.751Z,100772.31
2023-04-18T03:16:53.109Z,100765.81
2023-04-18T03:19:23.216Z,100767.52
2023-04-18T03:21:53.155Z,100764.61
2023-04-18T03:24:21.561Z,100758.63
2023-04-18T03:26:52.023Z,100769.56
2023-04-18T03:29:22.649Z,100770.23
2023-04-18T03:31:52.533Z,100775.52
2023-04-18T03:34:21.004Z,100772.61
2023-04-18T03:36:50.352Z,100775.86
2023-04-18T03:39:20.909Z,100770.57
2023-04-18T03:41:49.879Z,100777.90
2023-04-18T03:44:18.956Z,100774.14
2023-04-18T03:46:47.547Z,100779.42
2023-04-18T03:49:16.318Z,100779.25
2023-04-18T03:51:47.640Z,100778.22
2023-04-18T03:54:16.826Z,100783.84
2023-04-18T03:56:45.783Z,100781.45
2023-04-18T03:59:16.028Z,100783.48
2023-04-18T04:01:46.729Z,100780.91
2023-04-18T04:04:16.295Z,100776.97
2023-04-18T04:06:45.272Z,100782.93
2023-04-18T04:09:16.542Z,100786.52
2023-04-18T04:11:45.890Z,100778.47
2023-04-18T04:14:15.148Z,100783.95
2023-04-18T04:16:46.060Z,100780.01
2023-04-18T04:19:16.593Z,100784.78
2023-04-18T04:21:47.333Z,100782.38
2023-04-18T04:24:16.799Z,100779.98
2023-04-18T04:26:48.482Z,100776.89
2023-04-18T04:29:18.724Z,100769.36
2023-04-18T04:31:48.403Z,100773.09
2023-04-18T04:34:19.545Z,100777.69
2023-04-18T04:36:48.686Z,100776.14
2023-04-18T04:39:17.387Z,100771.34
2023-04-18T04:41:53.796Z,100768.77
2023-04-18T04:44:25.105Z,100772.84
2023-04-18T04:46:54.176Z,100777.44
2023-04-18T04:49:24.587Z,100772.97
2023-04-18T04:51:54.795Z,100777.38
2023-04-18T04:54:23.463Z,100784.52
2023-04-18T04:56:52.185Z,100781.75
2023-04-18T04:59:23.021Z,100792.52
2023-04-18T05:01:51.832Z,100792.16
2023-04-18T05:04:21.777Z,100793.30
2023-04-18T05:06:50.634Z,100794.67
2023-04-18T05:09:19.382Z,100786.25
2023-04-18T05:11:49.466Z,100787.91
2023-04-18T05:14:20.411Z,100789.77
2023-04-18T05:16:48.985Z,100788.36
2023-04-18T05:19:17.632Z,100794.47
2023-04-18T05:21:46.298Z,100796.47
2023-04-18T05:24:15.180Z,100798.47
2023-04-18T05:26:46.038Z,100802.02
2023-04-18T05:29:14.898Z,100796.53
2023-04-18T05:31:43.483Z,100802.82
2023-04-18T05:34:12.416Z,100799.01
2023-04-18T05:36:41.417Z,100800.34
2023-04-18T05:39:10.064Z,100798.25
2023-04-18T05:41:39.218Z,100792.06
2023-04-18T05:44:08.168Z,100792.06
2023-04-18T05:46:36.819Z,100794.62
2023-04-18T05:49:05.426Z,100800.20
2023-04-18T05:51:34.038Z,100798.41
2023-04-18T05:54:02.861Z,100804.83
2023-04-18T05:56:31.582Z,100801.15
2023-04-18T05:59:00.157Z,100798.17
2023-04-18T06:01:28.971Z,100794.67
2023-04-18T06:03:57.727Z,100789.98
2023-04-18T06:06:26.338Z,100785.83
2023-04-18T06:08:55.398Z,100790.08
2023-04-18T06:11:24.889Z,100793.42
2023-04-18T06:13:55.405Z,100786.55
2023-04-18T06:16:24.078Z,100793.73
2023-04-18T06:18:53.135Z,100792.63
2023-04-18T06:21:22.126Z,100790.63
2023-04-18T06:23:50.674Z,100790.39
2023-04-18T06:26:19.053Z,100785.17
2023-04-18T06:28:47.775Z,100791.45
2023-04-18T06:31:16.592Z,100793.94
2023-04-18T06:33:46.203Z,100788.33
2023-04-18T06:36:15.006Z,100794.16
2023-04-18T06:38:43.881Z,100787.33
2023-04-18T06:41:15.728Z,100794.09
2023-04-18T06:43:55.744Z,100792.66
2023-04-18T06:46:14.914Z,100799.13
2023-04-18T06:48:43.774Z,100792.00
2023-04-18T06:51:12.382Z,100789.58
2023-04-18T06:53:40.828Z,100789.25
2023-04-18T06:56:09.438Z,100791.20
2023-04-18T06:58:37.895Z,100787.53
2023-04-18T07:01:06.336Z,100793.33
2023-04-18T07:03:35.043Z,100796.98
2023-04-18T07:06:04.516Z,100796.21
2023-04-18T07:08:34.290Z,100788.29
2023-04-18T07:11:02.797Z,100793.13
2023-04-18T07:13:31.305Z,100791.36
2023-04-18T07:16:00.318Z,100797.75
2023-04-18T07:18:37.367Z,100796.37
2023-04-18T07:21:00.160Z,100796.91
2023-04-18T07:23:28.677Z,100790.77
2023-04-18T07:25:58.964Z,100789.19
2023-04-18T07:28:29.366Z,100790.16
2023-04-18T07:30:58.650Z,100789.67
2023-04-18T07:33:29.389Z,100782.32
2023-04-18T07:35:57.902Z,100785.23
2023-04-18T07:38:28.221Z,100790.45
2023-04-18T07:40:58.269Z,100778.75
2023-04-18T07:43:26.682Z,100781.33
2023-04-18T07:45:55.373Z,100791.67
2023-04-18T07:48:25.713Z,100783.97
2023-04-18T07:50:54.215Z,100782.80
2023-04-18T07:53:23.278Z,100782.26
2023-04-18T07:55:51.863Z,100792.62
2023-04-18T07:58:21.232Z,100787.55
2023-04-18T08:00:50.258Z,100790.30
2023-04-18T08:03:18.888Z,100782.36
2023-04-18T08:05:48.598Z,100783.20
2023-04-18T08:08:17.369Z,100776.31
2023-04-18T08:10:47.607Z,100780.33
2023-04-18T08:13:17.653Z,100779.16
2023-04-18T08:15:46.947Z,100781.39
2023-04-18T08:18:15.593Z,100774.92
2023-04-18T08:20:45.811Z,100769.41
2023-04-18T08:23:14.578Z,100774.08
2023-04-18T08:25:43.477Z,100766.55
2023-04-18T08:28:13.322Z,100769.35
2023-04-18T08:30:42.781Z,100771.35
2023-04-18T08:33:11.609Z,100769.13
2023-04-18T08:35:41.346Z,100769.44
2023-04-18T08:38:10.164Z,100763.06
2023-04-18T08:40:38.729Z,100761.78
2023-04-18T08:43:11.712Z,100763.16
2023-04-18T08:45:43.909Z,100755.95
2023-04-18T08:48:14.962Z,100763.14
2023-04-18T08:50:43.813Z,100762.75
2023-04-18T08:53:12.122Z,100762.77
2023-04-18T08:55:41.673Z,100762.08
2023-04-18T08:58:12.077Z,100757.33
2023-04-18T09:00:40.590Z,100759.55
2023-04-18T09:03:10.393Z,100759.24
2023-04-18T09:05:39.986Z,100754.06
2023-04-18T09:08:26.030Z,100748.13
2023-04-18T09:10:54.650Z,100751.83
2023-04-18T09:13:40.449Z,100746.64
2023-04-18T09:16:08.938Z,100742.92
2023-04-18T09:18:39.080Z,100742.71
2023-04-18T09:21:21.415Z,100737.73
2023-04-18T09:23:50.085Z,100732.54
2023-04-18T09:26:34.500Z,100731.91
2023-04-18T09:29:02.858Z,100733.50
2023-04-18T09:31:32.223Z,100727.88
2023-04-18T09:34:02.679Z,100724.70
2023-04-18T09:36:32.163Z,100735.08
2023-04-18T09:39:01.699Z,100732.23
2023-04-18T09:41:31.054Z,100737.21
2023-04-18T09:44:15.514Z,100728.86
2023-04-18T09:46:47.340Z,100724.50
2023-04-18T09:49:17.074Z,100737.11
2023-04-18T09:51:46.989Z,100722.35
2023-04-18T09:54:20.197Z,100725.31
2023-04-18T09:56:53.088Z,100731.55
2023-04-18T09:59:33.479Z,100719.02
2023-04-18T10:02:03.564Z,100715.42
2023-04-18T10:04:32.561Z,100716.89
2023-04-18T10:07:01.364Z,100723.33
2023-04-18T10:09:32.159Z,100712.17
2023-04-18T10:12:02.224Z,100705.91
2023-04-18T10:14:31.003Z,100703.99
2023-04-18T10:16:59.915Z,100703.02
2023-04-18T10:19:29.792Z,100703.87
2023-04-18T10:22:00.530Z,100704.00
2023-04-18T10:24:54.161Z,100696.66
2023-04-18T10:28:01.957Z,100706.50
2023-04-18T10:30:45.714Z,100705.13
2023-04-18T10:33:33.390Z,100701.11
2023-04-18T10:36:14.978Z,100699.64
2023-04-18T10:38:50.842Z,100705.16
2023-04-18T10:41:32.357Z,100702.71
2023-04-18T10:44:15.926Z,100708.77
2023-04-18T10:47:03.547Z,100717.03
2023-04-18T10:49:33.060Z,100717.50
2023-04-18T10:52:02.449Z,100710.22
2023-04-18T10:55:00.740Z,100712.48
2023-04-18T10:57:41.991Z,100719.92
2023-04-18T11:00:12.532Z,100727.80
2023-04-18T11:02:43.466Z,100720.78
2023-04-18T11:05:12.051Z,100721.72
2023-04-18T11:07:47.760Z,100718.02
2023-04-18T11:10:25.878Z,100731.80
2023-04-18T11:12:55.458Z,100728.84
2023-04-18T11:15:25.348Z,100730.11
2023-04-18T11:18:04.490Z,100729.05
2023-04-18T11:20:39.687Z,100723.64
2023-04-18T11:23:23.704Z,100731.64
2023-04-18T11:25:54.027Z,100722.40
2023-04-18T11:28:24.383Z,100723.62
2023-04-18T11:31:00.426Z,100729.70
2023-04-18T11:33:29.786Z,100723.62
2023-04-18T11:35:59.253Z,100717.40
2023-04-18T11:38:30.383Z,100710.58
2023-04-18T11:41:03.645Z,100714.16
2023-04-18T11:43:33.675Z,100715.29
2023-04-18T11:46:02.275Z,100712.42
2023-04-18T11:48:41.153Z,100718.53
2023-04-18T11:51:30.897Z,100710.69
2023-04-18T11:53:59.967Z,100712.15
2023-04-18T11:56:29.722Z,100720.15
2023-04-18T11:58:58.175Z,100718.73
2023-04-18T12:01:27.637Z,100718.41
2023-04-18T12:04:04.153Z,100719.83
2023-04-18T12:06:53.353Z,100724.30
2023-04-18T12:09:24.399Z,100726.54
2023-04-18T12:12:00.681Z,100726.76
2023-04-18T12:14:29.930Z,100729.68
2023-04-18T12:16:58.985Z,100725.99
2023-04-18T12:19:28.202Z,100723.05
2023-04-18T12:22:04.871Z,100711.36
2023-04-18T12:24:33.652Z,100708.94
2023-04-18T12:27:03.203Z,100697.25
2023-04-18T12:29:32.137Z,100697.97
2023-04-18T12:32:00.974Z,100696.33
2023-04-18T12:34:29.734Z,100699.52
2023-04-18T12:36:58.753Z,100695.72
2023-04-18T12:39:27.349Z,100697.84
2023-04-18T12:41:55.857Z,100694.96
2023-04-18T12:44:24.563Z,100693.12
2023-04-18T12:46:53.265Z,100694.17
2023-04-18T12:49:22.540Z,100694.03
2023-04-18T12:51:51.234Z,100691.48
2023-04-18T12:54:20.379Z,100688.09
2023-04-18T12:56:49.255Z,100695.84
2023-04-18T12:59:18.296Z,100688.91
2023-04-18T13:01:46.852Z,100691.13
2023-04-18T13:04:16.597Z,100695.58
2023-04-18T13:06:46.643Z,100697.47
2023-04-18T13:09:16.331Z,100694.78
2023-04-18T13:11:45.323Z,100690.58
2023-04-18T13:14:14.252Z,100688.61
2023-04-18T13:16:44.028Z,100690.17
2023-04-18T13:19:13.214Z,100696.36
2023-04-18T13:21:42.099Z,100692.49
2023-04-18T13:24:13.308Z,100688.44
2023-04-18T13:26:41.909Z,100690.33
2023-04-18T13:29:10.530Z,100688.58
2023-04-18T13:31:38.986Z,100684.93
2023-04-18T13:34:07.416Z,100684.74
2023-04-18T13:36:36.018Z,100682.80
2023-04-18T13:39:05.360Z,100683.27
2023-04-18T13:41:34.920Z,100685.63
2023-04-18T13:44:03.730Z,100682.83
2023-04-18T13:46:32.970Z,100678.66
2023-04-18T13:49:03.618Z,100664.77
2023-04-18T13:51:32.849Z,100665.23
2023-04-18T13:54:01.681Z,100661.58
2023-04-18T13:56:36.131Z,100662.05
2023-04-18T13:59:06.089Z,100660.61
2023-04-18T14:01:34.682Z,100652.33
2023-04-18T14:04:03.637Z,100656.71
2023-04-18T14:06:33.069Z,100654.30
2023-04-18T14:09:01.653Z,100657.66
2023-04-18T14:11:38.431Z,100655.77
2023-04-18T14:14:14.405Z,100649.56
2023-04-18T14:16:44.168Z,100650.55
2023-04-18T14:19:12.933Z,100644.02
2023-04-18T14:21:43.542Z,100643.30
2023-04-18T14:24:16.796Z,100643.76
2023-04-18T14:26:48.199Z,100644.41
2023-04-18T14:29:16.917Z,100642.97
2023-04-18T14:31:46.090Z,100647.41
2023-04-18T14:34:14.537Z,100648.06
2023-04-18T14:36:43.040Z,100650.22
2023-04-18T14:39:12.902Z,100643.42
2023-04-18T14:41:41.479Z,100642.30
2023-04-18T14:44:10.726Z,100643.28
2023-04-18T14:46:39.239Z,100647.20
2023-04-18T14:49:07.786Z,100639.17
2023-04-18T14:51:36.862Z,100633.03
2023-04-18T14:54:05.315Z,100629.95
2023-04-18T14:56:34.281Z,100634.80
2023-04-18T14:59:03.542Z,100635.19
2023-04-18T15:01:33.363Z,100633.56
2023-04-18T15:04:03.990Z,100637.88
2023-04-18T15:06:33.594Z,100636.38
2023-04-18T15:09:03.527Z,100636.38
2023-04-18T15:11:32.024Z,100631.94
2023-04-18T15:14:00.831Z,100629.91
2023-04-18T15:16:30.870Z,100623.05
2023-04-18T15:19:00.025Z,100622.01
2023-04-18T15:21:29.946Z,100622.66
2023-04-18T15:24:00.158Z,100615.47
2023-04-18T15:26:31.060Z,100617.37
2023-04-18T15:29:03.233Z,100607.12
2023-04-18T15:31:32.164Z,100611.23
2023-04-18T15:34:01.360Z,100611.75
2023-04-18T15:36:31.342Z,100610.91
2023-04-18T15:38:59.741Z,100611.10
2023-04-18T15:41:28.110Z,100604.25
2023-04-18T15:43:56.478Z,100605.94
2023-04-18T15:46:25.074Z,100603.00
2023-04-18T15:48:54.217Z,100597.84
2023-04-18T15:51:24.474Z,100590.27
2023-04-18T15:53:53.006Z,100587.32
2023-04-18T15:56:21.497Z,100581.96
2023-04-18T15:58:50.311Z,100591.69
2023-04-18T16:01:19.027Z,100588.95
2023-04-18T16:03:48.263Z,100587.05
2023-04-18T16:06:21.052Z,100590.31
2023-04-18T16:08:50.482Z,100590.97
2023-04-18T16:11:20.179Z,100585.48
2023-04-18T16:13:48.711Z,100591.94
2023-04-18T16:16:17.530Z,100597.11
2023-04-18T16:18:46.620Z,100589.20
2023-04-18T16:21:16.050Z,100579.80
2023-04-18T16:23:44.702Z,100587.83
2023-04-18T16:26:13.714Z,100579.39
2023-04-18T16:28:42.527Z,100584.36
2023-04-18T16:31:11.269Z,100576.00
2023-04-18T16:33:40.301Z,100577.38
2023-04-18T16:36:09.733Z,100579.27
2023-04-18T16:38:38.296Z,100580.84
2023-04-18T16:41:06.777Z,100583.59
2023-04-18T16:43:37.217Z,100581.89
2023-04-18T16:46:06.459Z,100578.82
2023-04-18T16:48:37.096Z,100579.02
2023-04-18T16:51:06.808Z,100577.00
2023-04-18T16:53:36.665Z,100573.93
2023-04-18T16:56:07.780Z,100581.84
2023-04-18T16:58:37.510Z,100580.47
2023-04-18T17:01:07.816Z,100570.73
2023-04-18T17:03:37.221Z,100575.90
2023-04-18T17:06:07.325Z,100580.21
2023-04-18T17:08:37.062Z,100582.30
2023-04-18T17:11:06.023Z,100565.52
2023-04-18T17:13:36.017Z,100571.01
2023-04-18T17:16:06.693Z,100572.91
2023-04-18T17:18:35.322Z,100572.05
2023-04-18T17:21:05.148Z,100571.85
2023-04-18T17:23:33.863Z,100568.59
2023-04-18T17:26:03.005Z,100564.67
2023-04-18T17:28:31.968Z,100562.78
2023-04-18T17:31:01.769Z,100560.75
2023-04-18T17:33:31.601Z,100559.58
2023-04-18T17:36:00.177Z,100561.28
2023-04-18T17:38:28.736Z,100565.91
2023-04-18T17:41:00.876Z,100557.36
2023-04-18T17:43:29.487Z,100551.68
2023-04-18T17:45:59.910Z,100552.20
2023-04-18T17:48:28.556Z,100554.95
2023-04-18T17:50:58.652Z,100546.91
2023-04-18T17:53:27.375Z,100548.28
2023-04-18T17:55:57.819Z,100543.52
2023-04-18T17:58:26.600Z,100542.15
2023-04-18T18:00:56.061Z,100544.57
2023-04-18T18:03:25.631Z,100549.73
2023-04-18T18:05:56.061Z,100542.35
2023-04-18T18:08:25.519Z,100536.41
2023-04-18T18:10:54.294Z,100534.20
2023-04-18T18:13:23.057Z,100530.61
2023-04-18T18:15:51.544Z,100525.97
2023-04-18T18:18:23.103Z,100526.49
2023-04-18T18:20:52.016Z,100520.16
2023-04-18T18:23:20.738Z,100516.24
2023-04-18T18:25:50.658Z,100521.92
2023-04-18T18:28:19.699Z,100514.22
2023-04-18T18:30:49.120Z,100511.84
2023-04-18T18:33:17.702Z,100511.72
2023-04-18T18:35:47.030Z,100512.24
2023-04-18T18:38:15.596Z,100517.20
2023-04-18T18:40:44.282Z,100505.91
2023-04-18T18:43:13.238Z,100501.14
2023-04-18T18:45:42.346Z,100496.70
2023-04-18T18:48:11.266Z,100497.75
2023-04-18T18:50:41.930Z,100490.58
2023-04-18T18:53:10.575Z,100488.23
2023-04-18T18:55:39.348Z,100484.64
2023-04-18T18:58:08.090Z,100487.58
2023-04-18T19:00:36.875Z,100488.95
2023-04-18T19:03:08.459Z,100483.14
2023-04-18T19:05:37.722Z,100479.75
2023-04-18T19:08:06.282Z,100482.17
2023-04-18T19:10:35.204Z,100472.58
2023-04-18T19:13:04.705Z,100473.22
2023-04-18T19:15:33.747Z,100469.11
2023-04-18T19:18:02.316Z,100473.03
2023-04-18T19:20:30.975Z,100474.40
2023-04-18T19:22:59.501Z,100469.11
2023-04-18T19:25:29.799Z,100470.48
2023-04-18T19:27:58.429Z,100461.09
2023-04-18T19:30:28.182Z,100462.98
2023-04-18T19:32:56.896Z,100462.33
2023-04-18T19:35:25.308Z,100455.48
2023-04-18T19:37:55.889Z,100455.48
2023-04-18T19:40:26.380Z,100450.72
2023-04-18T19:42:54.791Z,100451.89
2023-04-18T19:45:24.107Z,100449.67
2023-04-18T19:47:52.929Z,100441.97
2023-04-18T19:50:22.484Z,100439.36
2023-04-18T19:52:52.109Z,100435.45
2023-04-18T19:55:21.425Z,100435.64
2023-04-18T19:57:57.740Z,100439.95
2023-04-18T20:00:28.076Z,100433.30
2023-04-18T20:02:58.348Z,100431.93
2023-04-18T20:05:27.172Z,100432.12
2023-04-18T20:07:56.047Z,100426.45
2023-04-18T20:10:24.963Z,100425.08
2023-04-18T20:12:53.783Z,100434.88
2023-04-18T20:15:22.553Z,100421.17
2023-04-18T20:17:51.230Z,100421.17
2023-04-18T20:20:20.032Z,100428.02
2023-04-18T20:22:48.956Z,100430.23
2023-04-18T20:32:08.066Z,100420.72
2023-04-18T20:34:38.246Z,100418.70
2023-04-18T20:37:07.202Z,100417.66
2023-04-18T20:39:38.258Z,100410.80
2023-04-18T20:42:07.003Z,100404.02
2023-04-18T20:44:36.668Z,100402.13
2023-04-18T20:47:06.112Z,100407.80
2023-04-18T20:49:36.532Z,100399.91
2023-04-18T20:52:08.338Z,100396.00
2023-04-18T20:54:37.288Z,100398.02
2023-04-18T20:57:08.565Z,100385.36
2023-04-18T20:59:37.295Z,100391.16
2023-04-18T21:02:07.978Z,100383.47
2023-04-18T21:04:37.016Z,100382.09
2023-04-18T21:07:06.287Z,100386.41
2023-04-18T21:09:36.895Z,100385.56
2023-04-18T21:12:06.204Z,100385.23
2023-04-18T21:14:35.111Z,100381.12
2023-04-18T21:17:04.227Z,100377.02
2023-04-18T21:19:33.233Z,100365.53
2023-04-18T21:22:02.597Z,100369.44
2023-04-18T21:24:31.411Z,100372.19
2023-04-18T21:27:00.249Z,100363.11
2023-04-18T21:29:29.869Z,100370.81
2023-04-18T21:32:00.578Z,100364.61
2023-04-18T21:34:29.414Z,100368.52
2023-04-18T21:36:58.285Z,100371.91
2023-04-18T21:39:27.553Z,100370.02
2023-04-18T21:41:57.197Z,100378.56
2023-04-18T21:44:26.026Z,100385.09
2023-04-18T21:46:56.197Z,100376.55
2023-04-18T21:49:25.350Z,100379.48
2023-04-18T21:51:54.968Z,100375.25
2023-04-18T21:54:25.538Z,100385.56
2023-04-18T21:56:54.277Z,100374.67
2023-04-18T21:59:23.264Z,100374.55
2023-04-18T22:01:52.136Z,100370.31
2023-04-18T22:04:22.737Z,100367.25
2023-04-18T22:06:55.292Z,100367.77
2023-04-18T22:09:24.278Z,100362.17
2023-04-18T22:11:55.210Z,100358.58
2023-04-18T22:14:24.849Z,100354.67
2023-04-18T22:16:54.774Z,100355.72
2023-04-18T22:19:25.144Z,100354.34
2023-04-18T22:21:54.031Z,100354.55
2023-04-18T22:24:22.669Z,100362.77
2023-04-18T22:26:51.284Z,100351.67
2023-04-18T22:29:20.379Z,100357.68
2023-04-18T22:31:49.017Z,100341.31
2023-04-18T22:34:17.713Z,100351.79
2023-04-18T22:36:47.282Z,100343.97
2023-04-18T22:39:16.010Z,100331.84
2023-04-18T22:41:44.784Z,100333.02
2023-04-18T22:44:15.584Z,100335.03
2023-04-18T22:46:46.870Z,100327.98
2023-04-18T22:49:17.505Z,100325.41
2023-04-18T22:51:46.218Z,100315.09
2023-04-18T22:54:15.262Z,100319.85
2023-04-18T22:56:44.714Z,100311.64
2023-04-18T22:59:14.363Z,100312.36
2023-04-18T23:01:43.110Z,100308.45
2023-04-18T23:04:13.272Z,100301.44
2023-04-18T23:06:42.792Z,100295.84
2023-04-18T23:09:13.131Z,100293.17
2023-04-18T23:11:41.718Z,100291.03
2023-04-18T23:14:10.280Z,100285.50
2023-04-18T23:16:38.884Z,100290.50
2023-04-18T23:19:07.698Z,100294.67
2023-04-18T23:21:36.696Z,100289.59
2023-04-18T23:24:07.675Z,100289.80
2023-04-18T23:26:36.521Z,100282.37
2023-04-18T23:29:06.519Z,100289.28
2023-04-18T23:31:36.374Z,100286.94
2023-04-18T23:34:05.192Z,100283.55
2023-04-18T23:36:34.235Z,100287.53
2023-04-18T23:39:04.126Z,100289.94
2023-04-18T23:41:32.879Z,100285.12
2023-04-18T23:44:01.769Z,100279.97
2023-04-18T23:46:30.776Z,100276.06
2023-04-18T23:48:59.773Z,100276.38
2023-04-18T23:51:28.306Z,100278.73
2023-04-18T23:53:56.916Z,100276.64
2023-04-18T23:56:26.015Z,100270.97
2023-04-18T23:58:54.819Z,100264.97
